Time;durP1;ratioP1;P1;durP2;ratioP2;P2;SDS_P1;SDS_P2;PMS_P1;PMS_P2;Temp;Humidity;BMP_temperature;BMP_pressure;BME280_temperature;BME280_humidity;BME280_pressure;Samples;Min_cycle;Max_cycle;Signal;HPM_P1;HPM_P2
2023/11/14 00:00:31;;;;;;;;;;;17.00;92.80;;;;;;5052124;28;19909;-68
2023/11/14 00:02:57;;;;;;;;;;;16.90;92.70;;;;;;5052011;28;20042;-68
2023/11/14 00:05:23;;;;;;;;;;;17.00;92.80;;;;;;5052344;28;19954;-68
2023/11/14 00:07:49;;;;;;;;;;;17.00;92.70;;;;;;5052310;28;20370;-68
2023/11/14 00:10:14;;;;;;;;;;;17.00;92.80;;;;;;5052193;28;20010;-68
2023/11/14 00:12:40;;;;;;;;;;;17.00;92.70;;;;;;5052022;28;19909;-68
2023/11/14 00:15:06;;;;;;;;;;;17.00;92.80;;;;;;5052149;28;19917;-68
2023/11/14 00:17:31;;;;;;;;;;;17.10;92.10;;;;;;5054004;28;20405;-68
2023/11/14 00:19:57;;;;;;;;;;;17.00;92.60;;;;;;5056468;28;19913;-68
2023/11/14 00:22:22;;;;;;;;;;;17.10;92.70;;;;;;5056166;28;19922;-68
2023/11/14 00:24:48;;;;;;;;;;;17.00;92.70;;;;;;5055969;28;19923;-68
2023/11/14 00:27:14;;;;;;;;;;;17.00;92.70;;;;;;5055821;28;20419;-67
2023/11/14 00:29:41;;;;;;;;;;;17.00;92.50;;;;;;5055875;28;20359;-67
2023/11/14 00:32:07;;;;;;;;;;;17.20;92.90;;;;;;5055915;28;19944;-68
2023/11/14 00:34:33;;;;;;;;;;;17.10;92.80;;;;;;5055578;28;19944;-67
2023/11/14 00:36:58;;;;;;;;;;;17.10;92.70;;;;;;5055758;28;19955;-68
2023/11/14 00:39:24;;;;;;;;;;;17.10;92.80;;;;;;5055840;28;19909;-68
2023/11/14 00:41:53;;;;;;;;;;;17.10;92.70;;;;;;5055770;28;20263;-67
2023/11/14 00:44:20;;;;;;;;;;;17.20;91.10;;;;;;5055586;28;19955;-67
2023/11/14 00:46:46;;;;;;;;;;;17.10;92.60;;;;;;5055380;28;19913;-67
2023/11/14 00:49:12;;;;;;;;;;;17.00;92.70;;;;;;5055607;28;19908;-68
2023/11/14 00:51:38;;;;;;;;;;;17.10;92.70;;;;;;5055652;28;19962;-68
2023/11/14 00:54:04;;;;;;;;;;;17.00;92.70;;;;;;5055620;28;19919;-67
2023/11/14 00:56:30;;;;;;;;;;;17.10;92.30;;;;;;5055438;28;19917;-67
2023/11/14 00:58:56;;;;;;;;;;;17.10;92.80;;;;;;5055542;28;20303;-68
2023/11/14 01:01:22;;;;;;;;;;;17.00;92.50;;;;;;5055273;28;19909;-67
2023/11/14 01:03:47;;;;;;;;;;;17.50;92.80;;;;;;5054955;28;19921;-67
2023/11/14 01:06:13;;;;;;;;;;;17.10;92.70;;;;;;5055106;28;19916;-68
2023/11/14 01:08:39;;;;;;;;;;;17.10;92.50;;;;;;5055339;28;19948;-67
2023/11/14 01:11:05;;;;;;;;;;;17.20;92.70;;;;;;5055173;28;19971;-67
2023/11/14 01:13:31;;;;;;;;;;;17.10;92.50;;;;;;5054886;28;19912;-68
2023/11/14 01:15:56;;;;;;;;;;;17.10;92.60;;;;;;5054855;28;19913;-68
2023/11/14 01:18:22;;;;;;;;;;;17.10;92.50;;;;;;5054877;28;20003;-68
2023/11/14 01:20:47;;;;;;;;;;;17.10;92.50;;;;;;5054816;28;19958;-68
2023/11/14 01:23:16;;;;;;;;;;;17.20;92.30;;;;;;5054922;28;19948;-68
2023/11/14 01:25:43;;;;;;;;;;;17.10;92.60;;;;;;5054644;28;19909;-68
2023/11/14 01:28:09;;;;;;;;;;;17.10;92.70;;;;;;5053697;28;19925;-68
2023/11/14 01:30:35;;;;;;;;;;;17.10;92.70;;;;;;5054753;28;20279;-68
2023/11/14 01:33:00;;;;;;;;;;;17.10;92.60;;;;;;5054504;28;20396;-68
2023/11/14 01:35:26;;;;;;;;;;;17.10;92.40;;;;;;5054458;28;19916;-68
2023/11/14 01:37:51;;;;;;;;;;;17.20;92.60;;;;;;5054451;28;19924;-68
2023/11/14 01:40:17;;;;;;;;;;;17.20;92.70;;;;;;5054409;28;20286;-68
2023/11/14 01:42:42;;;;;;;;;;;17.20;92.70;;;;;;5055057;28;19931;-68
2023/11/14 01:45:09;;;;;;;;;;;17.10;92.70;;;;;;5054330;28;19917;-68
2023/11/14 01:47:34;;;;;;;;;;;17.10;92.60;;;;;;5054521;28;20433;-68
2023/11/14 01:50:00;;;;;;;;;;;17.10;92.60;;;;;;5054330;28;20407;-68
2023/11/14 01:52:26;;;;;;;;;;;17.60;92.70;;;;;;5054160;28;19951;-68
2023/11/14 01:54:51;;;;;;;;;;;17.20;92.60;;;;;;5054254;28;19930;-68
2023/11/14 01:57:17;;;;;;;;;;;17.50;92.70;;;;;;5054005;28;19928;-68
2023/11/14 01:59:43;;;;;;;;;;;17.20;92.60;;;;;;5053997;28;19924;-68
2023/11/14 02:02:08;;;;;;;;;;;17.10;92.50;;;;;;5053767;28;20354;-68
2023/11/14 02:04:34;;;;;;;;;;;17.20;92.60;;;;;;5053945;28;19913;-68
2023/11/14 02:07:00;;;;;;;;;;;17.20;92.70;;;;;;5053944;28;19908;-68
2023/11/14 02:09:27;;;;;;;;;;;17.20;92.50;;;;;;5054089;28;19909;-68
2023/11/14 02:11:53;;;;;;;;;;;17.10;92.60;;;;;;5054305;28;19959;-68
2023/11/14 02:14:19;;;;;;;;;;;17.10;92.60;;;;;;5054029;28;19996;-68
2023/11/14 02:16:46;;;;;;;;;;;17.20;92.60;;;;;;5053523;28;20015;-68
2023/11/14 02:19:12;;;;;;;;;;;17.20;92.90;;;;;;5053550;28;20004;-68
2023/11/14 02:21:38;;;;;;;;;;;17.20;92.50;;;;;;5053846;28;19909;-68
2023/11/14 02:24:05;;;;;;;;;;;17.20;92.60;;;;;;5053943;28;20343;-68
2023/11/14 02:26:31;;;;;;;;;;;17.30;91.90;;;;;;5053742;28;19932;-68
2023/11/14 02:28:59;;;;;;;;;;;17.20;92.60;;;;;;5053470;28;19909;-68
2023/11/14 02:31:25;;;;;;;;;;;17.10;92.40;;;;;;5053368;28;19909;-68
2023/11/14 02:33:51;;;;;;;;;;;16.70;92.30;;;;;;5053375;28;19913;-68
2023/11/14 02:36:16;;;;;;;;;;;17.10;92.50;;;;;;5053430;28;19909;-68
2023/11/14 02:38:42;;;;;;;;;;;17.10;92.50;;;;;;5053315;28;20047;-68
2023/11/14 02:41:07;;;;;;;;;;;17.10;92.50;;;;;;5053496;28;20382;-68
2023/11/14 02:43:33;;;;;;;;;;;17.10;92.60;;;;;;5053438;28;19913;-68
2023/11/14 02:45:59;;;;;;;;;;;17.10;93.00;;;;;;5053085;28;19912;-68
2023/11/14 02:48:25;;;;;;;;;;;17.20;92.70;;;;;;5053073;28;20007;-68
2023/11/14 02:50:55;;;;;;;;;;;17.10;92.60;;;;;;5053076;28;19909;-68
2023/11/14 02:53:21;;;;;;;;;;;17.20;90.60;;;;;;5053443;28;20283;-68
2023/11/14 02:55:47;;;;;;;;;;;17.20;92.80;;;;;;5052893;28;19909;-68
2023/11/14 02:58:13;;;;;;;;;;;17.10;92.90;;;;;;5053073;28;19939;-68
2023/11/14 03:00:42;;;;;;;;;;;17.10;92.60;;;;;;5052751;28;19913;-68
2023/11/14 03:03:12;;;;;;;;;;;17.20;92.70;;;;;;5052653;28;19921;-68
2023/11/14 03:05:54;;;;;;;;;;;17.20;92.90;;;;;;5050993;28;20430;-68
2023/11/14 03:08:19;;;;;;;;;;;17.20;92.80;;;;;;5053366;28;19916;-68
2023/11/14 03:10:45;;;;;;;;;;;17.20;92.70;;;;;;5052712;28;19920;-68
2023/11/14 03:13:11;;;;;;;;;;;17.20;92.50;;;;;;5052707;28;19909;-68
2023/11/14 03:15:36;;;;;;;;;;;17.20;92.60;;;;;;5052668;28;19924;-68
2023/11/14 03:18:02;;;;;;;;;;;17.20;92.60;;;;;;5052604;28;20019;-68
2023/11/14 03:20:29;;;;;;;;;;;17.20;91.70;;;;;;5051815;28;21474;-68
2023/11/14 03:22:55;;;;;;;;;;;17.30;92.60;;;;;;5052729;28;19962;-68
2023/11/14 03:25:22;;;;;;;;;;;17.30;92.60;;;;;;5052751;28;19916;-68
2023/11/14 03:27:48;;;;;;;;;;;17.20;92.60;;;;;;5052728;28;19916;-68
2023/11/14 03:30:14;;;;;;;;;;;17.20;92.60;;;;;;5052478;28;19913;-68
2023/11/14 03:32:40;;;;;;;;;;;17.20;92.60;;;;;;5052633;28;19908;-68
2023/11/14 03:35:06;;;;;;;;;;;17.20;92.60;;;;;;5052680;28;19916;-68
2023/11/14 03:37:32;;;;;;;;;;;17.30;92.10;;;;;;5053033;28;20237;-68
2023/11/14 03:39:58;;;;;;;;;;;17.30;92.70;;;;;;5052270;28;20015;-68
2023/11/14 03:42:23;;;;;;;;;;;17.30;92.60;;;;;;5052274;28;20318;-68
2023/11/14 03:44:49;;;;;;;;;;;17.30;92.60;;;;;;5052184;28;20002;-68
2023/11/14 03:47:15;;;;;;;;;;;17.30;92.50;;;;;;5052195;28;19925;-68
2023/11/14 03:49:41;;;;;;;;;;;17.20;92.50;;;;;;5052216;28;19915;-68
2023/11/14 03:52:06;;;;;;;;;;;17.50;92.60;;;;;;5051583;28;19909;-68
2023/11/14 03:54:33;;;;;;;;;;;17.30;92.50;;;;;;5052069;28;19908;-68
2023/11/14 03:56:58;;;;;;;;;;;17.20;92.60;;;;;;5051941;28;19971;-68
2023/11/14 03:59:24;;;;;;;;;;;17.20;92.40;;;;;;5052055;28;19908;-68
2023/11/14 04:01:49;;;;;;;;;;;17.20;92.30;;;;;;5051674;28;19938;-68
2023/11/14 04:04:15;;;;;;;;;;;17.50;92.50;;;;;;5052028;28;19924;-68
2023/11/14 04:06:40;;;;;;;;;;;17.30;92.50;;;;;;5052515;28;20019;-68
2023/11/14 04:09:06;;;;;;;;;;;17.30;92.40;;;;;;5052190;28;20015;-68
2023/11/14 04:11:32;;;;;;;;;;;17.20;92.60;;;;;;5051890;28;20474;-69
2023/11/14 04:13:58;;;;;;;;;;;17.30;92.30;;;;;;5051818;28;19963;-68
2023/11/14 04:16:23;;;;;;;;;;;17.20;92.40;;;;;;5051850;28;19968;-68
2023/11/14 04:18:49;;;;;;;;;;;17.30;92.30;;;;;;5052175;28;19956;-68
2023/11/14 04:21:19;;;;;;;;;;;17.30;92.40;;;;;;5052041;28;19947;-68
2023/11/14 04:23:48;;;;;;;;;;;17.40;92.30;;;;;;5052187;28;19931;-68
2023/11/14 04:26:14;;;;;;;;;;;17.30;90.10;;;;;;5052096;28;19909;-68
2023/11/14 04:28:41;;;;;;;;;;;17.30;92.70;;;;;;5051823;28;19924;-68
2023/11/14 04:31:06;;;;;;;;;;;17.20;92.40;;;;;;5051773;28;19909;-68
2023/11/14 04:33:32;;;;;;;;;;;17.30;92.50;;;;;;5034390;28;19931;-68
2023/11/14 04:35:57;;;;;;;;;;;17.30;92.30;;;;;;5051650;28;19916;-68
2023/11/14 04:38:23;;;;;;;;;;;17.30;92.40;;;;;;5051856;28;19971;-68
2023/11/14 04:40:49;;;;;;;;;;;17.20;92.50;;;;;;5051890;28;19909;-68
2023/11/14 04:43:15;;;;;;;;;;;17.20;92.40;;;;;;5051836;28;19986;-68
2023/11/14 04:45:41;;;;;;;;;;;17.30;92.60;;;;;;5051649;28;19916;-71
2023/11/14 04:48:10;;;;;;;;;;;17.30;92.30;;;;;;5051855;28;19909;-71
2023/11/14 04:50:35;;;;;;;;;;;17.20;92.70;;;;;;5051587;28;19954;-71
2023/11/14 04:53:01;;;;;;;;;;;17.20;92.40;;;;;;5051696;28;19940;-71
2023/11/14 04:55:27;;;;;;;;;;;17.30;92.60;;;;;;5051831;28;20320;-71
2023/11/14 04:57:53;;;;;;;;;;;17.20;92.30;;;;;;5051436;28;20268;-71
2023/11/14 05:00:19;;;;;;;;;;;17.20;92.60;;;;;;5051371;28;20425;-71
2023/11/14 05:02:45;;;;;;;;;;;17.20;92.50;;;;;;5052408;28;19937;-71
2023/11/14 05:05:11;;;;;;;;;;;17.30;92.80;;;;;;5055408;28;19909;-71
2023/11/14 05:07:39;;;;;;;;;;;17.30;92.60;;;;;;5055162;28;20283;-71
2023/11/14 05:10:05;;;;;;;;;;;17.20;92.70;;;;;;5055290;28;19915;-71
2023/11/14 05:12:31;;;;;;;;;;;17.30;92.30;;;;;;5055383;28;19909;-71
2023/11/14 05:14:57;;;;;;;;;;;17.30;92.80;;;;;;5055057;28;19916;-71
2023/11/14 05:17:23;;;;;;;;;;;17.10;92.70;;;;;;5054832;28;19916;-71
2023/11/14 05:19:50;;;;;;;;;;;17.30;92.80;;;;;;5055141;28;20004;-71
2023/11/14 05:22:17;;;;;;;;;;;17.30;92.80;;;;;;5055081;28;19909;-71
2023/11/14 05:24:43;;;;;;;;;;;17.30;93.00;;;;;;5054757;28;19963;-71
2023/11/14 05:27:09;;;;;;;;;;;17.40;92.80;;;;;;5054902;28;19962;-71
2023/11/14 05:29:35;;;;;;;;;;;17.30;92.90;;;;;;5054957;28;20378;-71
2023/11/14 05:32:01;;;;;;;;;;;17.50;92.80;;;;;;5054662;28;19916;-71
2023/11/14 05:34:26;;;;;;;;;;;17.30;92.80;;;;;;5054577;28;19909;-71
2023/11/14 05:36:52;;;;;;;;;;;17.30;92.90;;;;;;5055224;28;19917;-71
2023/11/14 05:39:18;;;;;;;;;;;17.40;92.80;;;;;;5036628;28;19909;-71
2023/11/14 05:41:43;;;;;;;;;;;17.40;92.80;;;;;;5054747;28;19966;-71
2023/11/14 05:44:09;;;;;;;;;;;17.40;92.80;;;;;;5054441;28;20273;-71
2023/11/14 05:46:34;;;;;;;;;;;17.50;92.90;;;;;;5054323;28;19915;-71
2023/11/14 05:49:01;;;;;;;;;;;17.50;92.80;;;;;;5054942;28;19916;-71
2023/11/14 05:51:27;;;;;;;;;;;17.30;92.90;;;;;;5054296;28;19913;-71
2023/11/14 05:53:52;;;;;;;;;;;17.50;92.80;;;;;;5054374;28;19924;-71
2023/11/14 05:56:18;;;;;;;;;;;17.40;92.90;;;;;;5054180;28;19948;-71
2023/11/14 05:58:43;;;;;;;;;;;17.40;92.80;;;;;;5054285;28;20367;-71
2023/11/14 06:01:10;;;;;;;;;;;17.40;92.60;;;;;;5054206;28;19999;-71
2023/11/14 06:03:36;;;;;;;;;;;17.40;92.70;;;;;;5053944;28;20409;-71
2023/11/14 06:06:02;;;;;;;;;;;17.40;92.80;;;;;;5054039;28;19909;-71
2023/11/14 06:08:27;;;;;;;;;;;17.40;92.40;;;;;;5054211;28;19923;-71
2023/11/14 06:10:53;;;;;;;;;;;17.40;92.80;;;;;;5053989;28;19915;-71
2023/11/14 06:13:18;;;;;;;;;;;17.30;92.70;;;;;;5053929;28;19908;-71
2023/11/14 06:15:44;;;;;;;;;;;17.40;92.80;;;;;;5053363;28;19966;-71
2023/11/14 06:18:10;;;;;;;;;;;17.40;92.60;;;;;;5054157;28;19956;-72
2023/11/14 06:20:36;;;;;;;;;;;17.40;92.70;;;;;;5053574;28;19909;-72
2023/11/14 06:23:02;;;;;;;;;;;17.80;92.80;;;;;;5053501;28;19916;-72
2023/11/14 06:25:28;;;;;;;;;;;17.50;92.70;;;;;;5053480;28;19908;-72
2023/11/14 06:27:54;;;;;;;;;;;17.40;92.70;;;;;;5036137;28;20047;-72
2023/11/14 06:30:21;;;;;;;;;;;17.50;92.80;;;;;;5053419;28;20385;-71
2023/11/14 06:32:47;;;;;;;;;;;17.40;92.70;;;;;;5053448;28;20438;-72
2023/11/14 06:35:12;;;;;;;;;;;17.40;92.80;;;;;;5053333;28;19944;-72
2023/11/14 06:37:38;;;;;;;;;;;17.40;92.70;;;;;;5053414;28;19917;-72
2023/11/14 06:40:04;;;;;;;;;;;17.60;92.70;;;;;;5053332;28;19909;-70
2023/11/14 06:42:29;;;;;;;;;;;17.30;92.10;;;;;;5053241;28;19908;-71
2023/11/14 06:44:55;;;;;;;;;;;17.30;92.60;;;;;;5053330;28;19913;-72
2023/11/14 06:47:20;;;;;;;;;;;17.40;92.60;;;;;;5053663;28;20394;-72
2023/11/14 06:49:46;;;;;;;;;;;17.70;92.70;;;;;;5053080;28;19956;-72
2023/11/14 06:52:11;;;;;;;;;;;17.40;92.70;;;;;;5052949;28;19909;-71
2023/11/14 06:54:40;;;;;;;;;;;17.40;92.70;;;;;;5053136;28;19955;-71
2023/11/14 06:57:07;;;;;;;;;;;17.40;92.80;;;;;;5053225;28;19971;-71
2023/11/14 06:59:34;;;;;;;;;;;17.40;92.60;;;;;;5053200;28;19913;-71
2023/11/14 07:02:05;;;;;;;;;;;17.40;92.60;;;;;;5052635;28;19912;-72
2023/11/14 07:04:33;;;;;;;;;;;17.50;93.00;;;;;;5053097;28;19954;-73
2023/11/14 07:06:59;;;;;;;;;;;17.50;92.80;;;;;;5052759;28;19909;-73
2023/11/14 07:09:25;;;;;;;;;;;17.40;92.70;;;;;;5052933;28;19916;-72
2023/11/14 07:11:54;;;;;;;;;;;17.50;93.10;;;;;;5052556;28;19909;-73
2023/11/14 07:14:24;;;;;;;;;;;17.50;92.90;;;;;;5053273;28;19912;-72
2023/11/14 07:16:51;;;;;;;;;;;17.50;90.40;;;;;;5052325;28;19917;-72
2023/11/14 07:19:17;;;;;;;;;;;17.50;92.80;;;;;;5052665;28;19991;-73
2023/11/14 07:21:45;;;;;;;;;;;17.40;92.60;;;;;;5052322;28;19956;-72
2023/11/14 07:24:10;;;;;;;;;;;17.50;92.70;;;;;;5052726;28;19915;-72
2023/11/14 07:26:37;;;;;;;;;;;17.40;92.60;;;;;;5052587;28;19909;-72
2023/11/14 07:29:04;;;;;;;;;;;17.80;92.90;;;;;;5052359;28;20363;-68
2023/11/14 07:31:29;;;;;;;;;;;17.50;92.60;;;;;;5052585;28;19909;-68
2023/11/14 07:33:55;;;;;;;;;;;17.50;92.70;;;;;;5052235;28;20267;-68
2023/11/14 07:36:22;;;;;;;;;;;17.30;92.60;;;;;;5052232;28;20407;-69
2023/11/14 07:38:48;;;;;;;;;;;17.40;92.50;;;;;;5052329;28;20256;-70
2023/11/14 07:41:14;;;;;;;;;;;17.60;92.70;;;;;;5052388;28;19909;-68
2023/11/14 07:43:40;;;;;;;;;;;17.40;92.50;;;;;;5052821;28;19909;-69
2023/11/14 07:46:08;;;;;;;;;;;17.60;92.60;;;;;;5052225;28;20386;-68
2023/11/14 07:48:35;;;;;;;;;;;17.60;92.60;;;;;;5052003;28;19915;-69
2023/11/14 07:51:02;;;;;;;;;;;17.50;92.60;;;;;;5051858;28;19908;-68
2023/11/14 07:53:28;;;;;;;;;;;17.40;92.80;;;;;;5052329;28;19909;-69
2023/11/14 07:55:53;;;;;;;;;;;17.50;92.80;;;;;;5052088;28;19909;-69
2023/11/14 07:58:20;;;;;;;;;;;17.60;92.70;;;;;;5051964;28;19917;-68
2023/11/14 08:00:46;;;;;;;;;;;17.50;92.60;;;;;;5051993;28;19920;-69
2023/11/14 08:03:12;;;;;;;;;;;17.40;92.50;;;;;;5051785;28;19921;-69
2023/11/14 08:05:41;;;;;;;;;;;17.40;92.70;;;;;;5052218;28;19908;-69
2023/11/14 08:08:10;;;;;;;;;;;17.50;92.00;;;;;;5051993;28;20302;-69
2023/11/14 08:10:37;;;;;;;;;;;17.50;92.70;;;;;;5052045;28;20275;-68
2023/11/14 08:13:03;;;;;;;;;;;17.40;92.60;;;;;;5052537;28;19909;-70
2023/11/14 08:15:29;;;;;;;;;;;17.50;92.80;;;;;;5051733;28;19983;-69
2023/11/14 08:17:55;;;;;;;;;;;17.50;92.90;;;;;;5051516;28;19921;-70
2023/11/14 08:20:21;;;;;;;;;;;17.80;92.70;;;;;;5051893;28;19909;-69
2023/11/14 08:22:48;;;;;;;;;;;17.50;93.00;;;;;;5051751;28;19916;-70
2023/11/14 08:25:14;;;;;;;;;;;17.50;92.90;;;;;;5051850;28;19935;-70
2023/11/14 08:27:42;;;;;;;;;;;17.50;92.90;;;;;;5051716;28;19999;-70
2023/11/14 08:30:09;;;;;;;;;;;17.40;92.80;;;;;;5051945;28;19913;-69
2023/11/14 08:32:35;;;;;;;;;;;17.50;92.90;;;;;;5051848;28;19916;-70
2023/11/14 08:35:03;;;;;;;;;;;17.50;92.80;;;;;;5051904;28;19931;-70
2023/11/14 08:37:30;;;;;;;;;;;17.50;92.90;;;;;;5052240;28;19917;-70
2023/11/14 08:39:56;;;;;;;;;;;17.50;93.00;;;;;;5038091;28;19920;-70
2023/11/14 08:42:22;;;;;;;;;;;17.50;92.80;;;;;;5055695;28;19908;-70
2023/11/14 08:44:48;;;;;;;;;;;17.50;92.90;;;;;;5055037;28;20345;-70
2023/11/14 08:47:14;;;;;;;;;;;18.10;93.10;;;;;;5055155;28;20378;-70
2023/11/14 08:49:40;;;;;;;;;;;17.60;92.90;;;;;;5055600;28;20314;-70
2023/11/14 08:52:06;;;;;;;;;;;17.60;92.90;;;;;;5055531;28;19915;-70
2023/11/14 08:54:32;;;;;;;;;;;17.60;92.80;;;;;;5055440;28;19916;-70
2023/11/14 08:56:58;;;;;;;;;;;17.60;92.80;;;;;;5055300;28;19917;-70
2023/11/14 08:59:24;;;;;;;;;;;17.60;92.90;;;;;;5055689;28;19909;-70
2023/11/14 09:01:50;;;;;;;;;;;17.60;92.60;;;;;;5054867;28;20378;-70
2023/11/14 09:04:18;;;;;;;;;;;;;;;;;;5055339;28;19948;-70
2023/11/14 09:06:44;;;;;;;;;;;17.60;91.80;;;;;;5055222;28;20011;-70
2023/11/14 09:09:10;;;;;;;;;;;17.60;92.90;;;;;;5055258;28;19909;-70
2023/11/14 09:11:37;;;;;;;;;;;17.60;92.70;;;;;;5054754;28;19919;-70
2023/11/14 09:14:03;;;;;;;;;;;17.60;92.80;;;;;;5057340;28;19913;-70
2023/11/14 09:16:29;;;;;;;;;;;17.60;92.60;;;;;;5054960;28;19915;-70
2023/11/14 09:18:56;;;;;;;;;;;17.60;92.80;;;;;;5055025;28;19912;-68
2023/11/14 09:21:22;;;;;;;;;;;17.60;92.60;;;;;;5054997;28;19913;-68
2023/11/14 09:23:48;;;;;;;;;;;17.80;92.70;;;;;;5054960;28;19913;-70
2023/11/14 09:26:14;;;;;;;;;;;17.60;92.50;;;;;;5054831;28;20333;-69
2023/11/14 09:28:40;;;;;;;;;;;17.60;92.80;;;;;;5054776;28;19971;-68
2023/11/14 09:31:06;;;;;;;;;;;17.40;92.70;;;;;;5054744;28;19912;-69
2023/11/14 09:33:35;;;;;;;;;;;17.30;92.50;;;;;;5054690;28;19915;-68
2023/11/14 09:36:01;;;;;;;;;;;17.60;90.80;;;;;;5054416;28;19916;-68
2023/11/14 09:38:27;;;;;;;;;;;17.60;92.60;;;;;;5054932;28;19917;-76
2023/11/14 09:40:53;;;;;;;;;;;17.70;92.70;;;;;;5054450;28;19916;-68
2023/11/14 09:43:21;;;;;;;;;;;17.70;92.70;;;;;;5053939;28;20390;-68
2023/11/14 09:45:50;;;;;;;;;;;17.70;92.60;;;;;;5053012;28;19923;-68
2023/11/14 09:48:17;;;;;;;;;;;17.70;92.80;;;;;;5052289;28;19948;-68
2023/11/14 09:50:43;;;;;;;;;;;17.70;92.60;;;;;;5051326;28;19916;-68
2023/11/14 09:53:09;;;;;;;;;;;18.00;92.70;;;;;;5052740;28;19912;-68
2023/11/14 09:55:35;;;;;;;;;;;17.80;92.60;;;;;;5052749;28;19908;-68
2023/11/14 09:58:01;;;;;;;;;;;17.80;92.70;;;;;;5052381;28;20295;-68
2023/11/14 10:00:30;;;;;;;;;;;17.70;92.30;;;;;;5053536;28;19939;-68
2023/11/14 10:02:56;;;;;;;;;;;17.70;92.50;;;;;;5053577;28;19925;-68
2023/11/14 10:05:22;;;;;;;;;;;17.70;92.50;;;;;;5054493;28;20274;-68
2023/11/14 10:07:51;;;;;;;;;;;17.80;92.80;;;;;;5054027;28;20284;-68
2023/11/14 10:10:18;;;;;;;;;;;17.80;90.80;;;;;;5053714;28;19948;-68
2023/11/14 10:12:43;;;;;;;;;;;17.70;92.70;;;;;;5053622;28;19909;-68
2023/11/14 10:15:10;;;;;;;;;;;17.80;92.80;;;;;;5053902;28;19908;-68
2023/11/14 10:17:40;;;;;;;;;;;17.80;92.70;;;;;;5053745;28;20271;-68
2023/11/14 10:20:07;;;;;;;;;;;17.90;90.50;;;;;;5053756;28;19970;-68
2023/11/14 10:22:34;;;;;;;;;;;17.80;92.10;;;;;;5053758;28;19913;-68
2023/11/14 10:25:03;;;;;;;;;;;17.80;92.80;;;;;;5053656;28;20267;-68
2023/11/14 10:27:31;;;;;;;;;;;17.90;92.80;;;;;;5053945;28;20270;-68
2023/11/14 10:29:56;;;;;;;;;;;17.80;92.80;;;;;;5053669;28;19919;-68
2023/11/14 10:32:24;;;;;;;;;;;17.80;92.80;;;;;;5053318;28;20007;-68
2023/11/14 10:34:53;;;;;;;;;;;17.80;92.70;;;;;;5053828;28;19935;-68
2023/11/14 10:37:29;;;;;;;;;;;17.80;92.90;;;;;;5053246;28;20303;-68
2023/11/14 10:39:54;;;;;;;;;;;17.90;90.50;;;;;;5053284;28;20121;-68
2023/11/14 10:42:20;;;;;;;;;;;17.80;92.80;;;;;;5053200;28;20406;-68
2023/11/14 10:45:06;;;;;;;;;;;17.80;92.90;;;;;;5053418;28;20349;-68
2023/11/14 10:47:42;;;;;;;;;;;17.90;90.60;;;;;;5053419;28;19908;-68
2023/11/14 10:50:27;;;;;;;;;;;17.70;90.60;;;;;;5053371;28;19959;-68
2023/11/14 10:52:53;;;;;;;;;;;17.80;90.50;;;;;;5052907;28;19909;-68
2023/11/14 10:55:20;;;;;;;;;;;17.80;92.70;;;;;;5052889;28;19909;-68
2023/11/14 10:57:47;;;;;;;;;;;18.00;93.10;;;;;;5052967;28;19917;-68
2023/11/14 11:00:13;;;;;;;;;;;17.80;93.00;;;;;;5052436;28;19909;-68
2023/11/14 11:02:40;;;;;;;;;;;17.80;92.80;;;;;;5052912;28;19921;-68
2023/11/14 11:05:06;;;;;;;;;;;17.80;93.00;;;;;;5052935;28;19913;-68
2023/11/14 11:07:31;;;;;;;;;;;17.80;92.80;;;;;;5052645;28;19909;-68
2023/11/14 11:09:58;;;;;;;;;;;17.80;93.20;;;;;;5052514;28;19912;-68
2023/11/14 11:12:25;;;;;;;;;;;17.70;92.70;;;;;;5052778;28;19908;-68
2023/11/14 11:14:51;;;;;;;;;;;17.80;93.00;;;;;;5052581;28;19909;-68
2023/11/14 11:17:35;;;;;;;;;;;17.80;93.10;;;;;;5052857;28;19946;-68
2023/11/14 11:20:00;;;;;;;;;;;17.80;90.70;;;;;;5052547;28;19915;-68
2023/11/14 11:22:27;;;;;;;;;;;17.80;93.00;;;;;;5052525;28;19909;-68
2023/11/14 11:25:11;;;;;;;;;;;17.80;93.00;;;;;;5052561;28;20371;-68
2023/11/14 11:27:40;;;;;;;;;;;17.90;90.80;;;;;;5052359;28;19909;-68
2023/11/14 11:30:08;;;;;;;;;;;17.80;93.10;;;;;;5052395;28;20018;-68
2023/11/14 11:32:35;;;;;;;;;;;17.80;92.90;;;;;;5053228;28;19963;-68
2023/11/14 11:35:16;;;;;;;;;;;17.90;93.10;;;;;;5052586;28;19908;-68
2023/11/14 11:37:48;;;;;;;;;;;17.90;90.80;;;;;;5052131;28;19986;-68
2023/11/14 11:40:14;;;;;;;;;;;17.90;90.70;;;;;;5052193;28;19909;-68
2023/11/14 11:42:40;;;;;;;;;;;17.80;93.20;;;;;;5052456;28;19961;-68
2023/11/14 11:45:26;;;;;;;;;;;17.90;92.90;;;;;;5052412;28;19917;-68
2023/11/14 11:47:52;;;;;;;;;;;17.90;92.50;;;;;;5051856;28;19909;-68
2023/11/14 11:50:25;;;;;;;;;;;17.90;93.00;;;;;;5052349;28;19909;-68
2023/11/14 11:53:06;;;;;;;;;;;17.90;90.70;;;;;;5052261;28;19920;-68
2023/11/14 11:55:34;;;;;;;;;;;17.90;90.70;;;;;;5052197;28;19915;-68
2023/11/14 11:58:03;;;;;;;;;;;17.90;93.00;;;;;;5051955;28;19952;-68
2023/11/14 12:00:30;;;;;;;;;;;17.80;90.70;;;;;;5052304;28;19909;-68
2023/11/14 12:03:00;;;;;;;;;;;17.90;92.80;;;;;;5052730;28;19924;-69
2023/11/14 12:05:27;;;;;;;;;;;17.90;90.60;;;;;;5055541;28;19913;-68
2023/11/14 12:07:59;;;;;;;;;;;17.90;93.20;;;;;;5052607;28;20359;-73
2023/11/14 12:10:44;;;;;;;;;;;17.90;90.60;;;;;;5050443;28;20321;-70
2023/11/14 12:13:16;;;;;;;;;;;17.90;92.90;;;;;;5053943;28;19909;-70
2023/11/14 12:15:42;;;;;;;;;;;17.70;93.00;;;;;;5056386;28;19995;-70
2023/11/14 12:18:09;;;;;;;;;;;17.90;93.10;;;;;;5056648;28;19917;-70
2023/11/14 12:20:35;;;;;;;;;;;17.90;93.00;;;;;;5056220;28;19967;-69
2023/11/14 12:23:02;;;;;;;;;;;17.90;93.00;;;;;;5056087;28;19909;-69
2023/11/14 12:25:27;;;;;;;;;;;17.90;93.00;;;;;;5056103;28;20003;-70
2023/11/14 12:28:00;;;;;;;;;;;17.90;93.00;;;;;;5055758;28;19952;-70
2023/11/14 12:30:27;;;;;;;;;;;17.80;92.80;;;;;;5056064;28;19919;-70
2023/11/14 12:33:06;;;;;;;;;;;17.90;93.40;;;;;;5055989;28;19913;-69
2023/11/14 12:35:47;;;;;;;;;;;17.90;90.60;;;;;;5055932;28;19908;-69
2023/11/14 12:38:13;;;;;;;;;;;17.90;90.60;;;;;;5055810;28;19917;-69
2023/11/14 12:40:39;;;;;;;;;;;17.90;92.90;;;;;;5055609;28;19963;-69
2023/11/14 12:43:09;;;;;;;;;;;17.90;92.70;;;;;;5056087;28;19919;-69
2023/11/14 12:45:44;;;;;;;;;;;17.90;93.00;;;;;;5055896;28;19916;-70
2023/11/14 12:48:10;;;;;;;;;;;17.90;90.70;;;;;;5055460;28;20008;-70
2023/11/14 12:50:36;;;;;;;;;;;17.90;92.90;;;;;;5055748;28;19951;-70
2023/11/14 12:53:02;;;;;;;;;;;17.90;92.90;;;;;;5055610;28;20171;-70
2023/11/14 12:55:28;;;;;;;;;;;18.10;93.00;;;;;;5055592;28;19924;-70
2023/11/14 12:57:54;;;;;;;;;;;17.90;92.90;;;;;;5055107;28;20024;-69
2023/11/14 13:00:20;;;;;;;;;;;17.90;92.80;;;;;;5055363;28;19908;-70
2023/11/14 13:02:47;;;;;;;;;;;17.80;92.70;;;;;;5054977;28;20072;-70
2023/11/14 13:05:13;;;;;;;;;;;17.90;92.80;;;;;;5055806;28;19909;-70
2023/11/14 13:07:39;;;;;;;;;;;17.90;92.90;;;;;;5055287;28;19966;-70
2023/11/14 13:10:08;;;;;;;;;;;17.90;92.80;;;;;;5054898;28;19917;-70
2023/11/14 13:12:35;;;;;;;;;;;17.80;92.00;;;;;;5055229;28;19913;-70
2023/11/14 13:15:01;;;;;;;;;;;17.80;92.70;;;;;;5055144;28;19959;-70
2023/11/14 13:17:27;;;;;;;;;;;17.90;93.10;;;;;;5055147;28;19917;-70
2023/11/14 13:19:53;;;;;;;;;;;18.00;92.80;;;;;;5054794;28;19917;-70
2023/11/14 13:22:19;;;;;;;;;;;17.90;92.80;;;;;;5054929;28;19996;-69
2023/11/14 13:24:45;;;;;;;;;;;17.90;92.80;;;;;;5054765;28;19995;-70
2023/11/14 13:27:11;;;;;;;;;;;17.90;92.80;;;;;;5054853;28;19955;-70
2023/11/14 13:29:37;;;;;;;;;;;18.00;92.40;;;;;;5054868;28;20027;-70
2023/11/14 13:32:06;;;;;;;;;;;17.90;92.70;;;;;;5054920;28;19916;-69
2023/11/14 13:34:32;;;;;;;;;;;17.90;92.50;;;;;;5055307;28;20038;-70
2023/11/14 13:36:57;;;;;;;;;;;17.90;92.80;;;;;;5054425;28;20015;-70
2023/11/14 13:39:24;;;;;;;;;;;17.90;92.70;;;;;;5054600;28;19913;-70
2023/11/14 13:41:52;;;;;;;;;;;17.90;92.70;;;;;;5054634;28;20034;-70
2023/11/14 13:44:17;;;;;;;;;;;17.90;92.70;;;;;;5054543;28;20422;-70
2023/11/14 13:46:43;;;;;;;;;;;17.90;92.60;;;;;;5054637;28;19947;-70
2023/11/14 13:49:10;;;;;;;;;;;18.00;92.70;;;;;;5054216;28;19909;-70
2023/11/14 13:51:36;;;;;;;;;;;17.80;92.60;;;;;;5054311;28;20402;-70
2023/11/14 13:54:01;;;;;;;;;;;17.90;92.40;;;;;;5054201;28;19948;-70
2023/11/14 13:56:27;;;;;;;;;;;17.90;92.70;;;;;;5053945;28;19916;-69
2023/11/14 13:58:53;;;;;;;;;;;17.90;92.60;;;;;;5054281;28;19990;-70
2023/11/14 14:01:19;;;;;;;;;;;17.80;92.50;;;;;;5054570;28;19936;-70
2023/11/14 14:03:45;;;;;;;;;;;17.90;92.60;;;;;;5053799;28;20391;-70
2023/11/14 14:06:12;;;;;;;;;;;18.00;92.70;;;;;;5054194;28;19916;-70
2023/11/14 14:08:39;;;;;;;;;;;17.90;92.60;;;;;;5054025;28;19909;-70
2023/11/14 14:11:10;;;;;;;;;;;17.80;92.50;;;;;;5053735;28;19923;-70
2023/11/14 14:13:51;;;;;;;;;;;17.80;92.40;;;;;;5051084;28;19909;-69
2023/11/14 14:16:18;;;;;;;;;;;17.80;92.50;;;;;;5053603;28;19909;-70